Time;durP1;ratioP1;P1;durP2;ratioP2;P2;SDS_P1;SDS_P2;PMS_P1;PMS_P2;Temp;Humidity;BMP_temperature;BMP_pressure;BME280_temperature;BME280_humidity;BME280_pressure;Samples;Min_cycle;Max_cycle;Signal;HPM_P1;HPM_P2
2021/05/31 00:00:25;;;;;;;4.44;1.52;;;;;;;15.82;68.45;100565.75;454024;115;930240;-74
2021/05/31 00:01:28;;;;;;;2.31;1.81;;;;;;;15.80;68.54;100567.90;453650;114;922712;-75
2021/05/31 00:02:32;;;;;;;3.32;1.77;;;;;;;15.78;68.63;100567.30;452469;115;930402;-74
2021/05/31 00:03:35;;;;;;;2.49;1.93;;;;;;;15.75;68.71;100571.41;452993;115;930302;-73
2021/05/31 00:04:39;;;;;;;2.21;1.74;;;;;;;15.74;68.73;100563.39;453856;116;926060;-73
2021/05/31 00:05:43;;;;;;;6.04;2.01;;;;;;;15.74;68.87;100566.98;445732;118;923362;-75
2021/05/31 00:06:54;;;;;;;4.88;1.58;;;;;;;15.74;68.99;100564.23;445949;116;923509;-75
2021/05/31 00:07:57;;;;;;;2.36;1.73;;;;;;;15.77;68.94;100565.63;452212;116;922588;-73
2021/05/31 00:09:01;;;;;;;4.24;1.74;;;;;;;15.76;68.79;100562.08;456066;113;923207;-76
2021/05/31 00:10:08;;;;;;;3.78;1.79;;;;;;;15.74;68.83;100566.14;458039;115;922433;-76
2021/05/31 00:11:12;;;;;;;2.89;2.01;;;;;;;15.70;68.81;100559.48;449383;116;922537;-74
2021/05/31 00:12:18;;;;;;;3.21;1.74;;;;;;;15.68;68.89;100553.39;448887;115;923125;-73
2021/05/31 00:13:23;;;;;;;2.55;1.93;;;;;;;15.64;69.05;100554.98;458224;114;926269;-74
2021/05/31 00:14:27;;;;;;;4.20;1.69;;;;;;;15.60;69.05;100559.31;457971;114;924415;-74
2021/05/31 00:15:32;;;;;;;4.01;1.97;;;;;;;15.57;69.20;100554.30;457465;115;923561;-72
2021/05/31 00:16:36;;;;;;;3.37;1.92;;;;;;;15.54;69.30;100557.56;458576;114;922638;-73
2021/05/31 00:17:40;;;;;;;2.72;2.05;;;;;;;15.52;69.38;100552.30;456375;115;923780;-74
2021/05/31 00:18:45;;;;;;;2.64;1.67;;;;;;;15.50;69.40;100554.42;458071;114;923495;-74
2021/05/31 00:19:51;;;;;;;2.44;1.96;;;;;;;15.48;69.48;100551.10;456931;115;923366;-74
2021/05/31 00:20:56;;;;;;;3.36;1.79;;;;;;;15.47;69.57;100556.84;458258;114;923148;-73
2021/05/31 00:22:00;;;;;;;2.55;2.04;;;;;;;15.44;69.65;100552.66;458058;113;924079;-74
2021/05/31 00:23:04;;;;;;;8.06;1.89;;;;;;;15.43;69.71;100565.59;458079;114;922936;-75
2021/05/31 00:24:08;;;;;;;2.39;1.96;;;;;;;15.43;69.74;100562.84;457462;114;923208;-75
2021/05/31 00:25:13;;;;;;;2.33;1.95;;;;;;;15.43;69.78;100564.75;459184;115;924855;-75
2021/05/31 00:26:18;;;;;;;3.42;1.91;;;;;;;15.42;69.77;100566.66;456658;114;928376;-74
2021/05/31 00:27:22;;;;;;;2.34;1.88;;;;;;;15.41;69.86;100567.74;457789;114;924346;-75
2021/05/31 00:28:27;;;;;;;2.96;2.14;;;;;;;15.40;69.89;100565.23;457334;114;928566;-74
2021/05/31 00:29:31;;;;;;;3.18;2.07;;;;;;;15.38;69.92;100565.47;456832;114;923070;-75
2021/05/31 00:30:37;;;;;;;2.42;1.98;;;;;;;15.38;69.92;100561.91;459096;115;924826;-74
2021/05/31 00:31:41;;;;;;;2.05;1.84;;;;;;;15.36;69.92;100566.81;446366;117;926544;-75
2021/05/31 00:32:45;;;;;;;2.49;2.08;;;;;;;15.35;69.95;100563.23;447771;115;931874;-74
2021/05/31 00:33:49;;;;;;;3.96;2.32;;;;;;;15.34;69.91;100563.47;457969;114;925202;-75
2021/05/31 00:34:53;;;;;;;3.18;1.98;;;;;;;15.33;69.90;100565.38;457665;115;925295;-73
2021/05/31 00:35:57;;;;;;;4.53;2.31;;;;;;;15.32;70.05;100555.49;458323;114;926097;-75
2021/05/31 00:37:02;;;;;;;4.26;2.01;;;;;;;15.32;69.99;100563.73;456497;115;923948;-73
2021/05/31 00:38:06;;;;;;;5.77;2.32;;;;;;;15.32;70.00;100563.73;455191;115;924499;-74
2021/05/31 00:39:10;;;;;;;4.02;2.38;;;;;;;15.32;69.98;100563.73;456738;114;926535;-74
2021/05/31 00:40:17;;;;;;;4.63;2.29;;;;;;;15.33;69.93;100559.05;456084;115;925758;-73
2021/05/31 00:41:22;;;;;;;5.17;2.24;;;;;;;15.32;69.99;100562.90;456174;114;922898;-73
2021/05/31 00:42:27;;;;;;;3.12;2.24;;;;;;;15.32;70.03;100565.64;451074;117;924061;-72
2021/05/31 00:43:34;;;;;;;3.14;2.38;;;;;;;15.31;70.01;100559.31;450952;115;923945;-72
2021/05/31 00:44:39;;;;;;;5.50;2.52;;;;;;;15.31;69.99;100564.81;457157;114;924062;-74
2021/05/31 00:45:45;;;;;;;3.82;2.47;;;;;;;15.31;69.95;100563.97;457371;114;922999;-73
2021/05/31 00:46:51;;;;;;;6.11;2.43;;;;;;;15.29;70.03;100566.96;457265;114;927346;-75
2021/05/31 00:47:55;;;;;;;5.53;2.39;;;;;;;15.29;70.07;100572.45;456616;114;924123;-75
2021/05/31 00:48:59;;;;;;;5.96;2.55;;;;;;;15.29;70.10;100568.87;457051;115;924756;-73
2021/05/31 00:50:05;;;;;;;4.41;2.39;;;;;;;15.30;70.18;100573.29;454388;114;925011;-73
2021/05/31 00:51:34;;;;;;;4.01;2.82;;;;;;;15.30;70.16;100573.29;454468;114;925159;-73
2021/05/31 00:52:38;;;;;;;3.66;2.49;;;;;;;15.29;70.19;100569.70;452135;115;924068;-72
2021/05/31 00:53:42;;;;;;;3.01;2.65;;;;;;;15.29;70.20;100571.62;452391;115;924144;-72
2021/05/31 00:54:47;;;;;;;7.29;2.51;;;;;;;15.28;70.18;100573.53;456335;114;924109;-71
2021/05/31 00:55:50;;;;;;;4.61;2.36;;;;;;;15.26;70.18;100570.21;459546;114;922869;-71
2021/05/31 00:56:54;;;;;;;6.55;2.17;;;;;;;15.24;70.23;100569.61;456893;115;923449;-72
2021/05/31 00:57:58;;;;;;;2.95;2.25;;;;;;;15.22;70.25;100571.76;457938;114;931715;-72
2021/05/31 00:59:01;;;;;;;2.56;2.30;;;;;;;15.21;70.36;100567.38;451297;116;930314;-71
2021/05/31 01:00:09;;;;;;;2.49;1.78;;;;;;;15.19;70.43;100566.77;450135;115;922414;-72
2021/05/31 01:01:16;;;;;;;1.89;1.75;;;;;;;15.19;70.47;100561.28;455900;115;931510;-71
2021/05/31 01:02:20;;;;;;;3.04;2.06;;;;;;;15.18;70.52;100564.26;456726;115;923747;-73
2021/05/31 01:03:24;;;;;;;2.50;1.79;;;;;;;15.17;70.58;100559.84;458255;114;924242;-72
2021/05/31 01:04:31;;;;;;;4.47;2.05;;;;;;;15.15;70.68;100560.11;458421;114;923055;-71
2021/05/31 01:05:38;;;;;;;3.62;1.83;;;;;;;15.13;70.66;100554.02;458698;114;923099;-70
2021/05/31 01:06:47;;;;;;;2.34;1.84;;;;;;;15.12;70.79;100552.34;451284;115;923136;-72
2021/05/31 01:07:54;;;;;;;3.99;1.98;;;;;;;15.10;70.86;100560.02;441666;117;922717;-70
2021/05/31 01:09:26;;;;;;;2.07;1.78;;;;;;;15.10;70.90;100556.43;458073;114;922512;-71
2021/05/31 01:10:46;;;;;;;1.95;1.61;;;;;;;15.09;70.93;100560.25;450469;116;922703;-72
2021/05/31 01:12:16;;;;;;;4.47;2.08;;;;;;;15.07;70.86;100563.23;450858;116;922727;-72
2021/05/31 01:13:39;;;;;;;3.20;1.92;;;;;;;15.03;70.87;100567.55;425167;122;922790;-71
2021/05/31 01:14:49;;;;;;;3.21;1.98;;;;;;;15.01;70.87;100569.70;425042;121;930498;-71
2021/05/31 01:16:09;;;;;;;2.70;1.79;;;;;;;14.98;70.96;100572.95;425141;120;923563;-72
2021/05/31 01:17:35;;;;;;;6.54;2.04;;;;;;;14.95;71.00;100560.52;440789;119;922737;-70
2021/05/31 01:18:42;;;;;;;3.14;1.89;;;;;;;14.94;71.03;100569.83;430270;121;924170;-71
2021/05/31 01:19:53;;;;;;;3.02;1.92;;;;;;;14.92;70.95;100572.01;433333;120;924060;-71
2021/05/31 01:21:25;;;;;;;2.74;1.72;;;;;;;14.90;70.94;100571.41;442518;118;923774;-70
2021/05/31 01:22:36;;;;;;;3.77;1.99;;;;;;;14.89;71.01;100563.41;424960;122;924502;-70
2021/05/31 01:23:50;;;;;;;2.76;2.02;;;;;;;14.88;70.98;100575.48;426611;122;926194;-72
2021/05/31 01:25:24;;;;;;;3.26;1.82;;;;;;;14.86;71.07;100575.72;440560;118;922781;-72
2021/05/31 01:26:32;;;;;;;2.66;2.04;;;;;;;14.86;71.12;100578.47;435375;121;923717;-70
2021/05/31 01:27:48;;;;;;;2.29;2.00;;;;;;;14.86;71.25;100578.47;433764;121;924156;-72
2021/05/31 01:29:04;;;;;;;1.97;1.84;;;;;;;14.86;71.13;100577.62;441419;118;927846;-70
2021/05/31 01:30:12;;;;;;;2.54;2.07;;;;;;;14.86;71.09;100578.47;434858;119;924202;-71
2021/05/31 01:31:19;;;;;;;1.76;1.61;;;;;;;14.87;71.14;100582.05;435493;121;924050;-72
2021/05/31 01:32:32;;;;;;;2.18;2.01;;;;;;;14.88;71.20;100578.23;435211;121;923124;-71
2021/05/31 01:33:36;;;;;;;3.34;2.11;;;;;;;14.90;71.26;100581.55;434942;121;922609;-72
2021/05/31 01:34:42;;;;;;;2.09;1.64;;;;;;;14.95;71.32;100584.39;441619;118;926672;-71
2021/05/31 01:35:46;;;;;;;2.83;1.88;;;;;;;15.00;71.25;100584.50;441377;118;931812;-71
2021/05/31 01:36:56;;;;;;;6.06;1.71;;;;;;;15.07;71.17;100576.13;432838;120;923225;-72
2021/05/31 01:38:03;;;;;;;4.04;2.86;;;;;;;15.13;71.02;100578.73;430971;120;922649;-70
2021/05/31 01:39:07;;;;;;;3.15;2.27;;;;;;;15.22;70.84;100577.25;434825;120;923504;-72
2021/05/31 01:40:14;;;;;;;3.97;2.42;;;;;;;15.30;70.68;100587.02;433467;120;922536;-72
2021/05/31 01:41:19;;;;;;;4.51;2.63;;;;;;;15.35;70.49;100578.88;435104;120;923001;-72
2021/05/31 01:42:26;;;;;;;2.32;2.12;;;;;;;15.39;70.37;100577.30;431924;120;924076;-72
2021/05/31 01:43:31;;;;;;;2.54;2.41;;;;;;;15.42;70.25;100577.66;436242;120;931828;-71
2021/05/31 01:44:35;;;;;;;2.20;2.10;;;;;;;15.46;70.15;100577.98;434129;120;927309;-72
2021/05/31 01:45:39;;;;;;;3.21;2.91;;;;;;;15.48;70.00;100580.50;433248;120;923361;-71
2021/05/31 01:46:43;;;;;;;3.59;2.46;;;;;;;15.48;69.96;100584.08;433864;120;925721;-70
2021/05/31 01:47:47;;;;;;;2.90;2.68;;;;;;;15.48;69.91;100581.33;435881;120;924314;-71
2021/05/31 01:48:52;;;;;;;2.67;2.47;;;;;;;15.47;69.84;100585.16;436490;121;925528;-72
2021/05/31 01:49:56;;;;;;;3.11;2.78;;;;;;;15.47;69.84;100584.32;436866;121;922337;-72
2021/05/31 01:51:01;;;;;;;3.83;2.61;;;;;;;15.44;69.89;100583.72;436176;121;923489;-71
2021/05/31 01:52:07;;;;;;;3.39;2.84;;;;;;;15.42;69.92;100587.81;436564;120;930812;-70
2021/05/31 01:53:12;;;;;;;3.33;3.04;;;;;;;15.41;69.97;100586.14;435062;121;922840;-70
2021/05/31 01:54:18;;;;;;;5.44;2.86;;;;;;;15.40;70.07;100592.70;435801;121;925010;-72
2021/05/31 01:55:22;;;;;;;3.12;2.78;;;;;;;15.40;70.13;100585.30;435798;120;925219;-70
2021/05/31 01:56:29;;;;;;;3.01;2.81;;;;;;;15.41;70.22;100591.63;435145;120;931640;-71
2021/05/31 01:57:34;;;;;;;6.12;2.89;;;;;;;15.42;70.27;100585.90;435698;121;924250;-71
2021/05/31 01:58:39;;;;;;;3.85;2.78;;;;;;;15.45;70.24;100584.56;435315;121;926277;-71
2021/05/31 01:59:43;;;;;;;3.12;2.92;;;;;;;15.48;70.25;100592.32;441645;119;930768;-71
2021/05/31 02:00:48;;;;;;;4.00;2.99;;;;;;;15.51;70.28;100591.81;441215;119;923118;-71
2021/05/31 02:01:54;;;;;;;2.99;2.76;;;;;;;15.54;70.30;100588.63;434225;121;922976;-72
2021/05/31 02:02:58;;;;;;;4.29;2.97;;;;;;;15.56;70.28;100591.10;436542;120;922583;-72
2021/05/31 02:04:02;;;;;;;2.82;2.61;;;;;;;15.57;70.19;100598.27;441386;118;933648;-72
2021/05/31 02:05:08;;;;;;;3.69;3.14;;;;;;;15.58;70.23;100588.95;437008;119;923263;-71
2021/05/31 02:06:14;;;;;;;3.42;3.11;;;;;;;15.60;70.20;100592.30;436497;121;922838;-74
2021/05/31 02:07:18;;;;;;;3.27;3.01;;;;;;;15.61;70.07;100593.94;437090;121;922548;-71
2021/05/31 02:08:22;;;;;;;3.86;2.73;;;;;;;15.63;69.97;100591.79;436305;120;930525;-71
2021/05/31 02:09:25;;;;;;;3.32;3.12;;;;;;;15.63;69.90;100598.12;436143;119;924506;-69
2021/05/31 02:10:29;;;;;;;3.75;2.98;;;;;;;15.65;69.87;100597.88;444128;119;924004;-72
2021/05/31 02:11:52;;;;;;;4.54;2.79;;;;;;;15.64;69.93;100602.55;449725;117;925248;-71
2021/05/31 02:13:01;;;;;;;3.05;2.77;;;;;;;15.66;69.89;100596.78;449305;117;923267;-71
2021/05/31 02:14:08;;;;;;;5.56;3.83;;;;;;;15.67;69.92;100603.95;449185;116;922524;-71
2021/05/31 02:15:15;;;;;;;7.39;2.92;;;;;;;15.70;69.93;100600.72;457562;115;925765;-71
2021/05/31 02:16:22;;;;;;;4.32;2.66;;;;;;;15.72;69.73;100595.78;457598;115;922334;-72
2021/05/31 02:18:04;;;;;;;3.33;2.82;;;;;;;15.74;69.60;100597.22;457257;114;927190;-71
2021/05/31 02:19:10;;;;;;;4.71;3.28;;;;;;;15.77;69.54;100599.45;458345;114;922903;-72
2021/05/31 02:20:18;;;;;;;3.78;3.36;;;;;;;15.80;69.53;100600.89;451481;116;923613;-72
2021/05/31 02:21:23;;;;;;;4.12;3.65;;;;;;;15.80;69.55;100601.73;453048;114;923084;-72
2021/05/31 02:22:30;;;;;;;5.31;3.62;;;;;;;15.82;69.53;100607.79;459226;114;922384;-71
2021/05/31 02:23:36;;;;;;;3.69;3.43;;;;;;;15.84;69.53;100610.30;460060;115;922680;-71
2021/05/31 02:24:50;;;;;;;5.26;3.53;;;;;;;15.97;69.53;100609.16;472197;110;948411;-72
2021/05/31 02:25:53;;;;;;;4.79;3.85;;;;;;;15.87;69.53;100609.83;458060;112;924181;-72
2021/05/31 02:26:58;;;;;;;4.21;3.71;;;;;;;15.88;69.57;100618.91;460530;112;923172;-72
2021/05/31 02:28:03;;;;;;;5.59;3.55;;;;;;;15.87;69.55;100619.98;459085;112;923021;-72
2021/05/31 02:29:07;;;;;;;4.04;3.67;;;;;;;15.85;69.53;100618.31;460356;112;922488;-73
2021/05/31 02:30:14;;;;;;;6.40;3.74;;;;;;;15.86;69.54;100624.64;460045;111;922502;-70
2021/05/31 02:31:18;;;;;;;4.37;3.34;;;;;;;15.86;69.56;100610.90;461683;111;922602;-71
2021/05/31 02:32:22;;;;;;;3.42;3.11;;;;;;;15.88;69.58;100614.21;459194;114;924511;-70
2021/05/31 02:33:27;;;;;;;3.69;3.39;;;;;;;15.89;69.57;100615.05;460590;111;932012;-70
2021/05/31 02:34:31;;;;;;;3.88;3.31;;;;;;;15.89;69.62;100615.05;459728;112;922418;-72
2021/05/31 02:35:38;;;;;;;5.26;3.42;;;;;;;15.90;69.67;100605.72;461535;111;924591;-71
2021/05/31 02:36:44;;;;;;;6.33;3.24;;;;;;;15.92;69.65;100609.07;459188;112;925541;-71
2021/05/31 02:37:48;;;;;;;3.49;3.21;;;;;;;15.93;69.66;100616.24;458167;111;924074;-72
2021/05/31 02:38:52;;;;;;;3.74;3.41;;;;;;;15.96;69.60;100610.23;461280;112;930490;-71
2021/05/31 02:39:56;;;;;;;3.43;3.09;;;;;;;15.97;69.57;100615.48;460699;111;925513;-72
2021/05/31 02:41:01;;;;;;;4.36;3.75;;;;;;;15.99;69.55;100615.25;459168;111;922377;-71
2021/05/31 02:42:06;;;;;;;3.44;3.12;;;;;;;16.00;69.53;100606.73;458950;112;922950;-71
2021/05/31 02:43:10;;;;;;;3.78;3.15;;;;;;;16.02;69.46;100612.82;458739;112;930588;-71
2021/05/31 02:44:13;;;;;;;3.68;3.34;;;;;;;16.05;69.42;100612.30;460027;111;923281;-72
2021/05/31 02:45:18;;;;;;;3.96;3.26;;;;;;;16.05;69.35;100615.06;458529;114;922432;-71
2021/05/31 02:46:25;;;;;;;3.82;3.37;;;;;;;16.06;69.34;100610.39;460333;111;923741;-72
2021/05/31 02:47:29;;;;;;;3.65;3.35;;;;;;;16.06;69.45;100613.98;459270;111;923799;-71
2021/05/31 02:48:34;;;;;;;3.56;3.28;;;;;;;16.08;69.54;100611.83;459845;112;923447;-72
2021/05/31 02:49:37;;;;;;;5.88;3.36;;;;;;;16.10;69.44;100608.80;457836;114;925179;-71
2021/05/31 02:50:42;;;;;;;4.04;3.20;;;;;;;16.11;69.29;100602.22;459057;111;931664;-70
2021/05/31 02:51:45;;;;;;;3.49;3.28;;;;;;;16.12;69.26;100610.23;460579;111;924105;-71
2021/05/31 02:52:49;;;;;;;9.96;3.74;;;;;;;16.12;69.33;100607.48;461312;111;924198;-72
2021/05/31 02:53:53;;;;;;;3.86;3.56;;;;;;;16.14;69.24;100605.33;459276;114;930575;-71
2021/05/31 02:54:57;;;;;;;5.63;3.84;;;;;;;16.12;69.22;100607.48;460072;112;924061;-70
2021/05/31 02:56:02;;;;;;;4.52;4.12;;;;;;;16.11;69.26;100614.06;460736;112;922508;-71
2021/05/31 02:57:06;;;;;;;4.76;4.23;;;;;;;16.10;69.29;100620.64;461729;111;923022;-71
2021/05/31 02:58:12;;;;;;;4.41;4.01;;;;;;;16.12;69.48;100617.65;459997;113;923985;-73
2021/05/31 02:59:15;;;;;;;4.75;4.27;;;;;;;16.14;69.54;100620.99;459371;112;923979;-72
2021/05/31 03:00:23;;;;;;;4.91;4.38;;;;;;;16.19;69.53;100610.07;459181;112;922910;-71
2021/05/31 03:01:27;;;;;;;4.63;4.23;;;;;;;16.22;69.39;100615.05;461743;111;922609;-71
2021/05/31 03:02:31;;;;;;;4.69;3.52;;;;;;;16.24;69.37;100612.90;459271;111;923070;-72
2021/05/31 03:03:35;;;;;;;4.00;3.56;;;;;;;16.26;69.37;100613.49;459481;112;926980;-71
2021/05/31 03:04:38;;;;;;;5.42;4.08;;;;;;;16.27;69.27;100612.38;459386;112;924045;-71
2021/05/31 03:05:42;;;;;;;4.66;4.25;;;;;;;16.26;69.22;100617.05;460242;112;934873;-72
2021/05/31 03:06:47;;;;;;;4.13;3.78;;;;;;;16.25;69.28;100620.07;458609;111;922713;-72
2021/05/31 03:07:50;;;;;;;6.12;5.39;;;;;;;16.26;69.33;100610.74;458457;112;922404;-72
2021/05/31 03:08:54;;;;;;;5.84;4.59;;;;;;;16.25;69.35;100614.57;458179;112;922543;-71
2021/05/31 03:09:58;;;;;;;4.79;4.47;;;;;;;16.24;69.41;100619.23;459656;112;933461;-70
2021/05/31 03:11:02;;;;;;;5.16;4.69;;;;;;;16.23;69.49;100627.73;459779;111;932674;-69
2021/05/31 03:12:06;;;;;;;7.51;4.69;;;;;;;16.21;69.58;100624.39;457809;112;923816;-70
2021/05/31 03:13:10;;;;;;;5.32;4.72;;;;;;;16.21;69.66;100622.47;458019;113;924726;-73
2021/05/31 03:14:13;;;;;;;5.21;4.76;;;;;;;16.21;69.79;100625.22;460576;112;922638;-71
2021/05/31 03:15:19;;;;;;;6.36;4.92;;;;;;;16.21;69.88;100629.89;460036;111;926732;-72
2021/05/31 03:16:24;;;;;;;5.24;4.78;;;;;;;16.21;69.97;100625.22;462049;112;931375;-72
2021/05/31 03:17:27;;;;;;;4.88;4.15;;;;;;;16.22;69.96;100624.14;459936;113;926779;-70
2021/05/31 03:18:30;;;;;;;5.11;4.46;;;;;;;16.23;70.07;100616.73;461855;112;924011;-72
2021/05/31 03:19:36;;;;;;;5.86;4.27;;;;;;;16.24;70.18;100621.16;459376;112;923082;-71
2021/05/31 03:20:41;;;;;;;5.59;4.22;;;;;;;16.26;70.20;100617.05;461398;113;924506;-71
2021/05/31 03:21:45;;;;;;;4.16;3.57;;;;;;;16.30;70.06;100627.57;465685;111;922859;-72
2021/05/31 03:22:48;;;;;;;5.78;4.66;;;;;;;16.30;69.92;100622.91;464466;111;922583;-72
2021/05/31 03:23:52;;;;;;;5.39;4.98;;;;;;;16.31;69.83;100624.58;460736;112;922414;-72
2021/05/31 03:24:55;;;;;;;4.82;4.17;;;;;;;16.31;69.76;100627.33;458359;112;930380;-72
2021/05/31 03:25:59;;;;;;;5.24;4.76;;;;;;;16.31;69.77;100623.73;458267;113;922871;-72
2021/05/31 03:27:04;;;;;;;4.77;4.37;;;;;;;16.32;69.77;100628.16;458563;112;930357;-73
2021/05/31 03:28:08;;;;;;;4.79;4.39;;;;;;;16.34;69.79;100628.72;459844;112;930593;-72
2021/05/31 03:29:12;;;;;;;4.74;4.36;;;;;;;16.35;69.76;100633.98;457212;114;930542;-72
2021/05/31 03:30:17;;;;;;;4.31;4.01;;;;;;;16.37;69.69;100629.08;457570;112;922459;-72
2021/05/31 03:31:21;;;;;;;4.67;4.34;;;;;;;16.38;69.65;100625.21;457552;113;924469;-73
2021/05/31 03:32:25;;;;;;;4.39;4.05;;;;;;;16.40;69.67;100624.97;459690;112;922519;-71
2021/05/31 03:33:30;;;;;;;4.79;4.23;;;;;;;16.42;69.69;100629.15;457472;112;923995;-72
2021/05/31 03:34:33;;;;;;;4.53;4.14;;;;;;;16.47;69.64;100629.22;459056;112;935031;-72
2021/05/31 03:35:37;;;;;;;4.55;4.23;;;;;;;16.51;69.57;100630.37;459478;113;932024;-73
2021/05/31 03:36:42;;;;;;;4.96;4.18;;;;;;;16.53;69.39;100625.47;457984;112;930529;-72
2021/05/31 03:37:46;;;;;;;5.49;4.29;;;;;;;16.54;69.33;100629.86;457207;113;922602;-73
2021/05/31 03:38:50;;;;;;;7.38;4.47;;;;;;;16.55;69.29;100628.78;459870;113;930985;-72
2021/05/31 03:39:53;;;;;;;4.99;4.60;;;;;;;16.57;69.33;100629.37;461709;112;923063;-72
2021/05/31 03:40:57;;;;;;;5.02;4.29;;;;;;;16.59;69.28;100629.96;459874;113;930388;-71
2021/05/31 03:42:01;;;;;;;5.01;4.59;;;;;;;16.62;69.20;100621.21;459173;113;931483;-71
2021/05/31 03:43:04;;;;;;;4.43;4.06;;;;;;;16.63;69.14;100625.64;459758;112;923235;-73
2021/05/31 03:44:09;;;;;;;4.74;4.24;;;;;;;16.65;69.16;100625.36;460935;112;923503;-71
2021/05/31 03:45:13;;;;;;;7.96;4.38;;;;;;;16.67;69.14;100623.20;459387;112;925321;-72
2021/05/31 03:46:17;;;;;;;6.12;5.04;;;;;;;16.68;69.14;100624.88;457911;113;923639;-71
2021/05/31 03:47:22;;;;;;;5.97;4.15;;;;;;;16.71;69.11;100615.25;459052;112;924362;-73
2021/05/31 03:48:25;;;;;;;4.71;4.31;;;;;;;16.72;69.05;100615.01;459234;112;923717;-72
2021/05/31 03:49:29;;;;;;;4.87;4.38;;;;;;;16.77;69.06;100622.50;459691;112;926184;-74
2021/05/31 03:50:33;;;;;;;4.26;3.96;;;;;;;16.79;68.81;100614.83;457294;112;925353;-73
2021/05/31 03:51:37;;;;;;;4.61;4.11;;;;;;;16.80;68.47;100613.75;459338;113;924053;-72
2021/05/31 03:52:41;;;;;;;4.11;3.78;;;;;;;16.78;68.33;100616.75;458602;112;930560;-71
2021/05/31 03:53:44;;;;;;;4.40;3.65;;;;;;;16.77;68.31;100609.57;457686;113;931529;-73
2021/05/31 03:54:48;;;;;;;4.29;3.95;;;;;;;16.77;68.27;100614.23;457075;113;924008;-71
2021/05/31 03:55:52;;;;;;;3.66;3.36;;;;;;;16.76;68.29;100616.16;457864;113;924445;-71
2021/05/31 03:56:56;;;;;;;4.00;3.55;;;;;;;16.76;68.19;100616.16;459946;112;923282;-71
2021/05/31 03:58:00;;;;;;;4.59;3.90;;;;;;;16.77;68.16;100609.57;459769;112;924296;-73
2021/05/31 03:59:06;;;;;;;5.34;4.12;;;;;;;16.78;68.12;100607.65;459063;113;923045;-69
2021/05/31 04:00:11;;;;;;;3.91;3.59;;;;;;;16.78;68.20;100613.16;461299;112;924035;-73
2021/05/31 04:01:17;;;;;;;3.46;3.25;;;;;;;16.76;68.20;100609.84;446705;116;927255;-72
2021/05/31 04:02:21;;;;;;;4.74;3.24;;;;;;;16.70;68.31;100610.86;446315;114;924159;-72
2021/05/31 04:03:25;;;;;;;3.64;3.34;;;;;;;16.60;68.38;100606.86;458175;114;926362;-72
2021/05/31 04:04:45;;;;;;;3.39;3.08;;;;;;;16.51;68.64;100610.27;459671;113;930857;-71
2021/05/31 04:11:34;;;;;;;4.33;2.44;;;;;;;16.32;68.83;100608.90;455379;114;924532;-71
2021/05/31 04:12:38;;;;;;;2.71;2.52;;;;;;;16.28;69.00;100603.05;455754;115;924138;-72
2021/05/31 04:13:42;;;;;;;2.91;2.67;;;;;;;16.25;69.21;100615.41;456024;115;924166;-72
2021/05/31 04:14:45;;;;;;;2.45;2.25;;;;;;;16.28;69.12;100603.05;455677;114;931782;-71
2021/05/31 04:15:50;;;;;;;2.77;2.54;;;;;;;16.30;69.04;100608.30;455495;114;924533;-73
2021/05/31 04:16:56;;;;;;;3.00;2.34;;;;;;;16.31;68.88;100602.56;446720;117;924542;-71
2021/05/31 04:18:00;;;;;;;2.96;2.77;;;;;;;16.33;68.87;100605.88;448433;115;930303;-72
2021/05/31 04:19:06;;;;;;;2.90;2.69;;;;;;;16.38;68.50;100602.36;455889;115;926653;-71
2021/05/31 04:20:11;;;;;;;2.79;2.58;;;;;;;16.41;68.38;100608.22;455698;115;924084;-71
2021/05/31 04:21:18;;;;;;;2.47;2.27;;;;;;;16.43;68.26;100606.02;454771;114;924096;-70
2021/05/31 04:22:22;;;;;;;2.96;2.76;;;;;;;16.46;68.20;100604.70;455190;114;924915;-73
2021/05/31 04:23:32;;;;;;;7.90;7.19;;;;;;;16.51;68.16;100611.11;454813;115;922326;-71
2021/05/31 04:24:35;;;;;;;3.96;3.66;;;;;;;16.59;68.15;100612.64;455856;114;922867;-71
2021/05/31 04:25:39;;;;;;;2.85;2.65;;;;;;;16.65;68.16;100611.59;455252;114;924523;-72
2021/05/31 04:26:47;;;;;;;2.89;2.69;;;;;;;16.73;67.83;100605.66;455433;114;930751;-70
2021/05/31 04:27:54;;;;;;;2.63;2.44;;;;;;;16.80;67.36;100609.08;447801;116;931404;-71
2021/05/31 04:29:00;;;;;;;2.67;2.47;;;;;;;16.83;67.07;100597.53;449148;116;930299;-73
2021/05/31 04:30:06;;;;;;;5.51;2.52;;;;;;;16.86;66.96;100601.72;455880;114;922463;-72
2021/05/31 04:31:09;;;;;;;2.26;2.16;;;;;;;16.89;66.88;100599.27;455832;113;931539;-71
2021/05/31 04:32:14;;;;;;;4.15;2.38;;;;;;;16.93;66.76;100600.42;455657;114;922846;-71
2021/05/31 04:33:17;;;;;;;2.58;2.38;;;;;;;16.99;66.65;100598.56;456513;114;922164;-70
2021/05/31 04:34:20;;;;;;;1.98;1.86;;;;;;;17.04;66.49;100595.86;456410;114;923561;-71
2021/05/31 04:35:24;;;;;;;4.74;2.22;;;;;;;17.10;66.44;100605.86;456696;114;923585;-73
2021/05/31 04:36:30;;;;;;;2.65;2.38;;;;;;;17.14;66.39;100596.02;456549;114;922297;-71
2021/05/31 04:37:34;;;;;;;2.79;2.59;;;;;;;17.19;66.40;100596.06;456501;116;923016;-72
2021/05/31 04:38:38;;;;;;;3.08;2.86;;;;;;;17.25;66.33;100602.47;456381;115;922778;-70
2021/05/31 04:39:44;;;;;;;2.67;2.47;;;;;;;17.30;66.03;100606.12;455764;114;922602;-73
2021/05/31 04:40:48;;;;;;;3.12;2.92;;;;;;;17.34;65.86;100598.16;456052;114;922482;-71
2021/05/31 04:41:51;;;;;;;2.69;2.40;;;;;;;17.36;65.62;100599.58;455412;116;930371;-72
2021/05/31 04:42:55;;;;;;;2.48;2.28;;;;;;;17.38;65.52;100602.88;456342;115;930206;-71
2021/05/31 04:43:59;;;;;;;2.26;2.14;;;;;;;17.39;65.37;100604.55;454855;114;931773;-71
2021/05/31 04:45:05;;;;;;;3.22;2.94;;;;;;;17.35;65.51;100606.17;455406;115;923545;-71
2021/05/31 04:46:09;;;;;;;2.68;2.37;;;;;;;17.35;65.51;100606.17;455805;114;922970;-72
2021/05/31 04:47:12;;;;;;;2.74;2.51;;;;;;;17.33;65.46;100611.09;454613;115;924045;-72
2021/05/31 04:48:16;;;;;;;5.11;2.49;;;;;;;17.33;65.43;100608.34;455193;114;923990;-70
2021/05/31 04:49:20;;;;;;;4.59;2.62;;;;;;;17.33;65.15;100607.51;454976;114;932008;-72
2021/05/31 04:50:26;;;;;;;2.24;2.13;;;;;;;17.33;65.21;100615.77;456444;114;922948;-72
2021/05/31 04:51:30;;;;;;;3.01;2.29;;;;;;;17.33;65.06;100608.34;446544;117;922784;-72
2021/05/31 04:52:33;;;;;;;2.76;2.01;;;;;;;17.35;65.14;100617.20;447505;116;930266;-72
2021/05/31 04:53:37;;;;;;;3.17;2.39;;;;;;;17.40;65.15;100617.25;455608;114;922429;-72
2021/05/31 04:54:43;;;;;;;4.80;2.36;;;;;;;17.45;65.22;100622.81;456018;116;932002;-73
2021/05/31 04:55:46;;;;;;;2.59;2.38;;;;;;;17.51;64.96;100621.78;455229;115;924036;-72
2021/05/31 04:56:51;;;;;;;3.06;2.64;;;;;;;17.53;64.63;100615.19;455889;113;922947;-75
2021/05/31 04:57:54;;;;;;;6.75;2.50;;;;;;;17.52;64.74;100625.38;456352;115;924059;-73
2021/05/31 04:58:58;;;;;;;4.67;2.78;;;;;;;17.52;64.94;100622.62;455842;114;924476;-74
2021/05/31 05:00:03;;;;;;;5.61;2.63;;;;;;;17.54;64.90;100625.93;455870;114;926826;-71
2021/05/31 05:01:07;;;;;;;4.98;2.32;;;;;;;17.55;64.83;100624.84;455188;113;925897;-71
2021/05/31 05:02:11;;;;;;;2.41;2.21;;;;;;;17.55;64.43;100622.09;455761;114;926226;-74
2021/05/31 05:03:17;;;;;;;3.69;2.69;;;;;;;17.53;64.36;100624.29;455756;116;924110;-72
2021/05/31 05:04:21;;;;;;;3.16;2.64;;;;;;;17.49;64.39;100626.71;455132;115;933524;-70
2021/05/31 05:05:25;;;;;;;3.71;2.96;;;;;;;17.43;64.58;100626.91;456138;113;924026;-74
2021/05/31 05:06:30;;;;;;;6.18;3.44;;;;;;;17.39;64.87;100623.02;455233;114;924000;-70
2021/05/31 05:07:33;;;;;;;6.44;2.98;;;;;;;17.40;65.07;100628.27;455937;116;924056;-75
2021/05/31 05:08:37;;;;;;;5.14;2.97;;;;;;;17.44;65.16;100628.58;455435;115;924509;-71